Detalii statie SCHWAB AGRO ARDUD [00001CF5]

Toti senzorii

Date Temperatura solului [C]Precipitatii [mm]Voltaj baterie [mV]Leaf Wetness [Min]HC Air temperature [C]HC Relative humidity [%]Punctul de roua [C]
medieminmaxsumaultimatimpmedieminmaxmediemediemin
2018-12-09 16:00:00 0 6660 5.39 4.94 5.79 95.74 4.5 -5.1
2018-12-09 17:00:00 0 6650 4.6 4.36 4.85 100 4.5 4.3
2018-12-09 18:00:00 0 6650 4.23 4.13 4.34 100 4.2 4.1
2018-12-09 19:00:00 0.4 6650 4.28 4.2 4.41 100 4.2 4.2
2018-12-09 20:00:00 0 6650 4.14 3.96 4.31 100 4.1 3.9
2018-12-09 21:00:00 0 6650 4.07 4.02 4.15 100 4 4
2018-12-09 22:00:00 0 6650 4.17 4.08 4.44 100 4.1 4
2018-12-09 23:00:00 0 6650 4.45 4.34 4.57 100 4.4 4.3
2018-12-10 00:00:00 0 6650 4.28 4.21 4.4 100 4.2 4.2
2018-12-10 01:00:00 0 6650 4.46 4.21 4.74 100 4.4 4.2
2018-12-10 02:00:00 0 6660 4.78 4.61 5.06 100 4.7 4.6
2018-12-10 03:00:00 0 6660 4.25 4 4.77 100 4.2 4
2018-12-10 04:00:00 0 6650 4.3 4.19 4.41 100 4.2 4.1
2018-12-10 05:00:00 0 6660 4.24 4.1 4.37 100 4.2 4.1
2018-12-10 06:00:00 0 6650 4.11 3.92 4.26 100 4 3.9
2018-12-10 07:00:00 0 6650 4.72 4.34 4.88 100 4.6 4.3
2018-12-10 08:00:00 0 6650 5.11 4.78 5.3 100 5 4.7
2018-12-10 09:00:00 0 6650 5.22 5.11 5.29 100 5.1 5.1
2018-12-10 10:00:00 0 6660 5.3 5.23 5.39 100 5.2 5.2
2018-12-10 11:00:00 0 6650 5.31 5.19 5.39 100 5.2 5.1
2018-12-10 12:00:00 0 6650 5.08 4.99 5.2 100 5 4.9
2018-12-10 13:00:00 0.6 6650 4.58 4.12 4.92 100 4.5 4.1
2018-12-10 14:00:00 0.4 6650 4.51 4.16 4.87 100 4.4 4.1
2018-12-10 15:00:00 0 6650 4.89 4.76 4.99 100 4.8 4.7
2018-12-10 16:00:00 0 6650 4.73 4.6 4.81 100 4.6 4.6
2018-12-10 17:00:00 0 6650 4.38 4.12 4.65 100 4.3 4.1
2018-12-10 18:00:00 0 6650 3.79 3.56 4.15 100 3.7 3.5
2018-12-10 19:00:00 0 6640 3.52 3.45 3.62 100 3.4 3.4
2018-12-10 20:00:00 0 6640 3.24 3.03 3.45 100 3.2 3
2018-12-10 21:00:00 0 6650 2.97 2.6 3.21 100 2.9 2.6
2018-12-10 22:00:00 0 6650 2.8 2.69 2.9 100 2.7 2.6
2018-12-10 23:00:00 0 6650 2.39 1.84 2.86 100 2.3 1.8
2018-12-11 00:00:00 0 6650 1.6 1.22 2.04 100 1.5 1.2
2018-12-11 01:00:00 0 6640 0.52 -0.05 1.05 100 0.4 0
2018-12-11 02:00:00 0 6640 0.14 -0.32 0.53 100 0.1 -0.2
2018-12-11 03:00:00 0 6620 -0.04 -0.64 0.48 48.62 -8.8 0
2018-12-11 04:00:00 0 6640 -0.7 -1.28 -0.37 16.66 0 0
2018-12-11 05:00:00 0 6630 -0.72 -1.5 -0.22 89.19 0
2018-12-11 06:00:00 0 6630 -0.27 -0.47 -0.06 100 -0.1 -0.3
2018-12-11 07:00:00 0 6630 0.05 -0.05 0.13 100 0 0
2018-12-11 08:00:00 0 6630 0.1 0 0.39 100 0 0